createdAt,value
2022-10-26T04:17:00.122Z,9.29
2022-10-26T04:19:26.543Z,9.19
2022-10-26T04:21:53.088Z,9.25
2022-10-26T04:24:19.565Z,9.25
2022-10-26T04:26:45.999Z,9.22
2022-10-26T04:29:13.689Z,9.16
2022-10-26T04:31:41.276Z,9.11
2022-10-26T04:34:07.740Z,9.08
2022-10-26T04:36:35.050Z,9.12
2022-10-26T04:39:02.011Z,9.01
2022-10-26T04:41:28.470Z,9.05
2022-10-26T04:43:54.905Z,9.09
2022-10-26T04:46:21.393Z,9.08
2022-10-26T04:48:48.566Z,9.10
2022-10-26T04:51:15.148Z,9.07
2022-10-26T04:53:41.620Z,9.10
2022-10-26T04:56:08.793Z,9.12
2022-10-26T04:58:41.491Z,9.07
2022-10-26T05:01:08.093Z,9.02
2022-10-26T05:03:34.595Z,8.92
2022-10-26T05:06:01.100Z,8.94
2022-10-26T05:08:29.844Z,8.92
2022-10-26T05:10:56.765Z,8.99
2022-10-26T05:13:23.305Z,8.97
2022-10-26T05:15:54.162Z,8.99
2022-10-26T05:18:22.873Z,9.00
2022-10-26T05:20:55.704Z,8.93
2022-10-26T05:23:27.294Z,9.02
2022-10-26T05:25:55.774Z,9.03
2022-10-26T05:28:22.393Z,9.04
2022-10-26T05:31:51.199Z,9.05
2022-10-26T05:34:17.695Z,9.07
2022-10-26T05:36:44.124Z,9.08
2022-10-26T05:39:10.530Z,9.01
2022-10-26T05:41:36.963Z,9.01
2022-10-26T05:44:03.536Z,9.01
2022-10-26T05:46:33.181Z,8.94
2022-10-26T05:48:59.718Z,9.00
2022-10-26T05:51:26.291Z,9.06
2022-10-26T05:53:54.663Z,9.07
2022-10-26T05:56:49.547Z,8.99
2022-10-26T05:59:18.516Z,9.03
2022-10-26T06:02:03.802Z,9.08
2022-10-26T06:04:38.540Z,9.11
2022-10-26T06:07:12.123Z,9.10
2022-10-26T06:09:39.715Z,9.10
2022-10-26T06:12:07.498Z,9.01
2022-10-26T06:14:35.227Z,9.03
2022-10-26T06:17:29.703Z,8.89
2022-10-26T06:20:24.228Z,9.06
2022-10-26T06:23:18.646Z,9.14
2022-10-26T06:26:35.046Z,9.18
2022-10-26T06:29:17.780Z,9.23
2022-10-26T06:31:48.025Z,9.24
2022-10-26T06:34:23.095Z,9.28
2022-10-26T06:36:50.490Z,9.18
2022-10-26T06:39:18.238Z,9.22
2022-10-26T06:41:44.943Z,9.26
2022-10-26T06:44:22.632Z,9.26
2022-10-26T06:46:55.600Z,9.27
2022-10-26T06:50:23.208Z,9.26
2022-10-26T06:53:12.306Z,9.37
2022-10-26T06:55:49.658Z,9.40
2022-10-26T06:58:24.416Z,9.42
2022-10-26T07:00:55.022Z,9.45
2022-10-26T07:03:25.523Z,9.21
2022-10-26T07:05:52.170Z,9.36
2022-10-26T07:08:19.029Z,9.42
2022-10-26T07:10:47.023Z,9.37
2022-10-26T07:13:13.571Z,9.48
2022-10-26T07:15:41.048Z,9.53
2022-10-26T07:18:07.967Z,9.49
2022-10-26T07:20:42.083Z,9.49
2022-10-26T07:23:12.966Z,9.57
2022-10-26T07:25:40.453Z,9.53
2022-10-26T07:28:10.130Z,9.62
2022-10-26T07:30:39.590Z,9.64
2022-10-26T07:33:32.255Z,9.65
2022-10-26T07:35:59.891Z,9.69
2022-10-26T07:38:26.433Z,9.86
2022-10-26T07:40:54.218Z,9.76
2022-10-26T07:43:46.515Z,9.93
2022-10-26T07:46:13.077Z,9.99
2022-10-26T07:48:41.761Z,10.08
2022-10-26T07:51:09.557Z,10.17
2022-10-26T07:54:03.550Z,10.21
2022-10-26T07:56:45.482Z,10.31
2022-10-26T07:59:41.379Z,10.37
2022-10-26T08:02:15.027Z,10.37
2022-10-26T08:04:43.924Z,10.27
2022-10-26T08:07:10.395Z,10.33
2022-10-26T08:09:36.905Z,10.43
2022-10-26T08:12:03.488Z,10.41
2022-10-26T08:14:30.112Z,10.55
2022-10-26T08:17:01.794Z,10.69
2022-10-26T08:19:28.204Z,10.76
2022-10-26T08:21:54.656Z,10.80
2022-10-26T08:24:21.094Z,10.90
2022-10-26T08:26:47.536Z,11.05
2022-10-26T08:29:14.162Z,11.10
2022-10-26T08:31:40.693Z,11.04
2022-10-26T08:34:07.451Z,11.10
2022-10-26T08:36:33.988Z,11.03
2022-10-26T08:41:52.758Z,11.43
2022-10-26T08:44:42.344Z,11.48
2022-10-26T08:47:24.063Z,11.52
2022-10-26T08:49:59.640Z,11.02
2022-10-26T08:52:36.725Z,11.35
2022-10-26T08:55:06.315Z,11.00
2022-10-26T08:57:41.246Z,10.80
2022-10-26T09:00:29.448Z,11.03
2022-10-26T09:03:16.253Z,10.98
2022-10-26T09:06:12.118Z,10.87
2022-10-26T09:09:14.382Z,10.98
2022-10-26T09:12:15.152Z,10.81
2022-10-26T09:14:43.441Z,11.07
2022-10-26T09:17:26.970Z,10.92
2022-10-26T09:20:35.277Z,11.05
2022-10-26T09:23:20.414Z,10.97
2022-10-26T09:25:55.076Z,11.02
2022-10-26T09:28:21.997Z,11.00
2022-10-26T09:30:48.693Z,11.29
2022-10-26T09:33:23.283Z,11.17
2022-10-26T09:35:59.191Z,11.31
2022-10-26T09:38:34.614Z,11.17
2022-10-26T09:41:27.149Z,11.14
2022-10-26T09:44:27.138Z,11.30
2022-10-26T09:47:03.125Z,11.45
2022-10-26T09:49:53.522Z,11.52
2022-10-26T09:52:20.030Z,11.49
2022-10-26T09:54:46.489Z,12.07
2022-10-26T09:57:16.079Z,12.13
2022-10-26T09:59:42.823Z,12.20
2022-10-26T10:02:43.973Z,12.30
2022-10-26T10:05:49.793Z,12.57
2022-10-26T10:08:19.523Z,12.62
2022-10-26T10:10:59.991Z,12.48
2022-10-26T10:13:35.878Z,12.15
2022-10-26T10:16:04.510Z,12.23
2022-10-26T10:18:31.688Z,12.32
2022-10-26T10:20:59.628Z,12.67
2022-10-26T10:23:33.358Z,12.71
2022-10-26T10:26:01.502Z,13.23
2022-10-26T10:28:42.824Z,13.78
2022-10-26T10:31:22.330Z,13.50
2022-10-26T10:33:58.219Z,13.77
2022-10-26T10:36:32.336Z,13.87
2022-10-26T10:39:03.147Z,13.54
2022-10-26T10:41:36.311Z,13.26
2022-10-26T10:44:15.202Z,13.46
2022-10-26T10:46:43.857Z,13.56
2022-10-26T10:49:22.805Z,13.46
2022-10-26T10:51:49.730Z,13.24
2022-10-26T10:54:31.979Z,13.19
2022-10-26T10:57:48.907Z,13.43
2022-10-26T11:00:18.753Z,13.70
2022-10-26T11:03:16.775Z,13.51
2022-10-26T11:06:03.567Z,14.63
2022-10-26T11:08:45.368Z,14.84
2022-10-26T11:11:44.702Z,14.81
2022-10-26T11:14:18.703Z,14.99
2022-10-26T11:17:11.437Z,14.83
2022-10-26T11:19:45.257Z,14.62
2022-10-26T11:22:16.796Z,14.93
2022-10-26T11:25:07.722Z,14.53
2022-10-26T11:27:43.558Z,14.73
2022-10-26T11:30:18.221Z,14.39
2022-10-26T11:32:51.112Z,14.38
2022-10-26T11:35:36.684Z,14.43
2022-10-26T11:38:05.995Z,14.58
2022-10-26T11:40:54.705Z,14.73
2022-10-26T11:43:41.332Z,14.53
2022-10-26T11:46:27.943Z,14.53
2022-10-26T11:49:11.202Z,15.10
2022-10-26T11:52:26.867Z,14.71
2022-10-26T11:54:54.546Z,14.86
2022-10-26T11:57:25.974Z,14.81
2022-10-26T12:00:02.449Z,15.16
2022-10-26T12:03:08.976Z,15.21
2022-10-26T12:05:38.354Z,15.29
2022-10-26T12:08:37.586Z,15.45
2022-10-26T12:11:13.352Z,15.05
2022-10-26T12:13:56.604Z,14.78
2022-10-26T12:16:48.595Z,14.65
2022-10-26T12:19:42.250Z,14.41
2022-10-26T12:22:14.697Z,14.64
2022-10-26T12:24:46.343Z,14.68
2022-10-26T12:30:26.924Z,15.36
2022-10-26T12:32:55.475Z,15.59
2022-10-26T12:35:44.434Z,15.73
2022-10-26T12:38:29.141Z,16.50
2022-10-26T12:41:05.215Z,17.00
2022-10-26T12:43:33.740Z,16.69
2022-10-26T12:46:12.450Z,16.34
2022-10-26T12:48:47.415Z,16.90
2022-10-26T12:51:21.532Z,15.89
2022-10-26T12:54:06.907Z,16.59
2022-10-26T12:57:06.452Z,16.39
2022-10-26T13:00:05.797Z,16.48
2022-10-26T13:03:04.281Z,16.29
2022-10-26T13:06:07.296Z,16.13
2022-10-26T13:11:38.616Z,16.60
2022-10-26T13:14:08.999Z,16.24
2022-10-26T13:16:35.727Z,16.41
2022-10-26T13:19:02.809Z,16.67
2022-10-26T13:21:31.664Z,16.75
2022-10-26T13:24:06.148Z,17.80
2022-10-26T13:27:17.495Z,18.62
2022-10-26T13:30:35.634Z,19.46
2022-10-26T13:33:03.911Z,20.55
2022-10-26T13:35:31.751Z,20.45
2022-10-26T13:38:07.413Z,21.10
2022-10-26T13:40:38.219Z,21.45
2022-10-26T13:43:10.788Z,22.77
2022-10-26T13:45:47.273Z,21.51
2022-10-26T13:48:31.105Z,21.35
2022-10-26T13:51:15.826Z,21.68
2022-10-26T13:53:55.148Z,22.04
2022-10-26T13:56:21.650Z,22.87
2022-10-26T14:02:06.468Z,21.16
2022-10-26T14:04:32.954Z,21.20
2022-10-26T14:06:59.548Z,22.93
2022-10-26T14:09:28.846Z,22.63
2022-10-26T14:12:00.957Z,22.55
2022-10-26T14:14:32.328Z,21.99
2022-10-26T14:16:59.581Z,21.54
2022-10-26T14:19:31.482Z,21.92
2022-10-26T14:21:58.801Z,20.65
2022-10-26T14:24:48.264Z,19.75
2022-10-26T14:27:23.193Z,19.30
2022-10-26T14:30:20.483Z,19.56
2022-10-26T14:32:40.144Z,18.62
2022-10-26T14:35:12.569Z,17.63
2022-10-26T14:37:46.341Z,17.19
2022-10-26T14:40:27.297Z,17.33
2022-10-26T14:43:02.446Z,17.47
2022-10-26T14:45:49.188Z,17.43
2022-10-26T14:48:31.281Z,17.55
2022-10-26T14:51:10.979Z,17.55
2022-10-26T14:53:40.834Z,17.79
2022-10-26T14:56:30.047Z,17.70
2022-10-26T14:58:59.196Z,17.68
2022-10-26T15:01:34.546Z,17.83
2022-10-26T15:04:07.351Z,17.59
2022-10-26T15:06:44.431Z,17.77
2022-10-26T15:09:32.805Z,17.63
2022-10-26T15:11:59.937Z,17.39
2022-10-26T15:14:27.497Z,17.47
2022-10-26T15:16:56.948Z,17.14
2022-10-26T15:19:24.371Z,17.37
2022-10-26T15:21:53.121Z,17.46
2022-10-26T15:24:22.626Z,17.48
2022-10-26T15:26:52.485Z,17.45
2022-10-26T15:29:36.663Z,17.39
2022-10-26T15:32:07.550Z,17.37
2022-10-26T15:34:34.074Z,17.28
2022-10-26T15:37:00.558Z,17.16
2022-10-26T15:39:27.600Z,16.99
2022-10-26T15:41:54.308Z,16.87
2022-10-26T15:44:22.118Z,16.83
2022-10-26T15:46:50.052Z,16.73
2022-10-26T15:49:19.756Z,16.65
2022-10-26T15:51:48.010Z,16.55
2022-10-26T15:54:15.221Z,16.42
2022-10-26T15:56:43.701Z,16.31
2022-10-26T15:59:17.719Z,16.15
2022-10-26T16:01:44.510Z,16.01
2022-10-26T16:04:12.137Z,15.91
2022-10-26T16:06:40.911Z,15.78
2022-10-26T16:09:15.618Z,15.68
2022-10-26T16:11:43.123Z,15.56
2022-10-26T16:14:10.876Z,15.50
2022-10-26T16:16:37.553Z,15.42
2022-10-26T16:19:29.402Z,15.34
2022-10-26T16:21:51.495Z,15.28
2022-10-26T16:24:18.195Z,15.04
2022-10-26T16:26:44.677Z,14.92
2022-10-26T16:29:11.158Z,14.72
2022-10-26T16:31:37.598Z,14.58
2022-10-26T16:34:04.407Z,14.74
2022-10-26T16:36:33.990Z,14.30
2022-10-26T16:41:27.379Z,14.43
2022-10-26T16:43:56.372Z,14.45
2022-10-26T16:46:22.823Z,14.35
2022-10-26T16:48:50.283Z,14.22
2022-10-26T16:51:22.060Z,14.19
2022-10-26T16:53:51.609Z,13.91
2022-10-26T16:56:20.216Z,13.79
2022-10-26T16:58:46.901Z,13.58
2022-10-26T17:01:18.196Z,13.61
2022-10-26T17:03:45.789Z,13.65
2022-10-26T17:06:12.840Z,13.72
2022-10-26T17:08:39.517Z,13.68
2022-10-26T17:11:15.675Z,13.60
2022-10-26T17:13:42.332Z,13.48
2022-10-26T17:16:12.962Z,13.45
2022-10-26T17:18:40.988Z,13.37
2022-10-26T17:21:09.159Z,13.18
2022-10-26T17:23:35.604Z,13.06
2022-10-26T17:26:28.598Z,13.01
2022-10-26T17:28:56.845Z,12.79
2022-10-26T17:31:25.003Z,12.79
2022-10-26T17:33:51.758Z,12.78
2022-10-26T17:36:20.631Z,12.64
2022-10-26T17:38:52.335Z,12.62
2022-10-26T17:41:20.602Z,12.48
2022-10-26T17:43:49.052Z,12.56
2022-10-26T17:46:22.827Z,12.64
2022-10-26T17:48:49.264Z,12.69
2022-10-26T17:51:18.317Z,12.62
2022-10-26T17:53:49.247Z,12.49
2022-10-26T17:56:21.402Z,12.44
2022-10-26T17:58:56.405Z,12.46
2022-10-26T18:01:23.299Z,12.39
2022-10-26T18:03:50.274Z,12.30
2022-10-26T18:06:17.639Z,12.28
2022-10-26T18:08:45.225Z,12.09
2022-10-26T18:11:14.900Z,12.00
2022-10-26T18:13:41.411Z,11.99
2022-10-26T18:16:12.409Z,11.97
2022-10-26T18:18:41.087Z,11.88
2022-10-26T18:21:10.897Z,11.74
2022-10-26T18:23:37.857Z,11.70
2022-10-26T18:26:15.207Z,11.58
2022-10-26T18:28:42.164Z,11.50
2022-10-26T18:31:11.409Z,11.51
2022-10-26T18:33:38.619Z,11.61
2022-10-26T18:36:08.825Z,11.62
2022-10-26T18:38:35.713Z,11.56
2022-10-26T18:41:29.027Z,11.54
2022-10-26T18:43:58.901Z,11.40
2022-10-26T18:46:30.739Z,11.56
2022-10-26T18:48:59.242Z,11.45
2022-10-26T18:51:30.504Z,11.51
2022-10-26T18:53:58.288Z,11.35
2022-10-26T18:56:25.559Z,11.37
2022-10-26T18:58:57.110Z,11.30
2022-10-26T19:01:28.721Z,11.35
2022-10-26T19:04:03.125Z,11.37
2022-10-26T19:06:35.426Z,11.25
2022-10-26T19:09:02.596Z,11.20
2022-10-26T19:11:30.589Z,11.12
2022-10-26T19:13:57.622Z,11.10
2022-10-26T19:16:44.771Z,11.00
2022-10-26T19:19:13.629Z,10.97
2022-10-26T19:21:40.119Z,10.93
2022-10-26T19:24:11.985Z,10.71
2022-10-26T19:26:42.421Z,10.50
2022-10-26T19:29:14.918Z,10.48
2022-10-26T19:31:42.892Z,10.31
2022-10-26T19:34:10.731Z,10.05
2022-10-26T19:36:37.192Z,10.21
2022-10-26T19:39:03.667Z,10.43
2022-10-26T19:41:31.263Z,10.46
2022-10-26T19:46:32.583Z,10.25
2022-10-26T19:49:01.321Z,10.19
2022-10-26T19:51:30.581Z,10.03
2022-10-26T19:54:03.206Z,9.90
2022-10-26T19:56:34.410Z,9.94
2022-10-26T19:59:02.119Z,10.11
2022-10-26T20:01:28.960Z,10.21
2022-10-26T20:03:55.721Z,10.13
2022-10-26T20:06:22.230Z,10.15
2022-10-26T20:08:49.650Z,10.09
2022-10-26T20:11:17.668Z,10.17
2022-10-26T20:13:46.065Z,10.12
2022-10-26T20:16:13.601Z,10.10
2022-10-26T20:18:43.977Z,10.16
2022-10-26T20:21:14.302Z,10.17
2022-10-26T20:23:40.739Z,10.16
2022-10-26T20:26:07.318Z,10.09
2022-10-26T20:28:33.843Z,10.06
2022-10-26T20:31:01.005Z,9.97
2022-10-26T20:33:27.553Z,9.96
2022-10-26T20:35:58.647Z,9.91
2022-10-26T20:38:26.163Z,9.90
2022-10-26T20:40:57.815Z,9.90
2022-10-26T20:43:26.286Z,9.91
2022-10-26T20:45:54.114Z,9.87
2022-10-26T20:48:21.216Z,9.86
2022-10-26T20:50:59.224Z,9.77
2022-10-26T20:53:32.192Z,9.72
2022-10-26T20:56:01.517Z,9.63
2022-10-26T20:58:49.926Z,9.55
2022-10-26T21:01:30.168Z,9.48
2022-10-26T21:03:59.023Z,9.45
2022-10-26T21:06:26.166Z,9.42
2022-10-26T21:08:54.365Z,9.47
2022-10-26T21:11:22.956Z,9.55
2022-10-26T21:13:50.268Z,9.45
2022-10-26T21:16:17.277Z,9.41
2022-10-26T21:18:43.915Z,9.30
2022-10-26T21:21:10.596Z,9.26
2022-10-26T21:23:39.353Z,9.21
2022-10-26T21:26:06.655Z,9.25
2022-10-26T21:28:39.207Z,9.18
2022-10-26T21:31:07.472Z,9.22
2022-10-26T21:33:34.175Z,9.14
2022-10-26T21:36:02.661Z,9.11
2022-10-26T21:38:30.593Z,9.21
2022-10-26T21:41:06.285Z,9.15
2022-10-26T21:43:33.638Z,9.19
2022-10-26T21:46:03.396Z,9.15
2022-10-26T21:48:31.532Z,9.00
2022-10-26T21:50:58.093Z,9.04
2022-10-26T21:53:26.668Z,8.92
2022-10-26T21:56:04.328Z,8.84
2022-10-26T21:58:31.076Z,8.69
